Time;durP1;ratioP1;P1;durP2;ratioP2;P2;SDS_P1;SDS_P2;PMS_P1;PMS_P2;Temp;Humidity;BMP_temperature;BMP_pressure;BME280_temperature;BME280_humidity;BME280_pressure;Samples;Min_cycle;Max_cycle;Signal;HPM_P1;HPM_P2
2022/11/04 00:01:15;;;;;;;;;;;10.60;99.90;;;;;;1888722;76;20127;-74
2022/11/04 00:03:42;;;;;;;;;;;10.60;99.90;;;;;;1888140;76;20327;-74
2022/11/04 00:06:09;;;;;;;;;;;10.70;99.90;;;;;;1888820;76;20221;-75
2022/11/04 00:08:36;;;;;;;;;;;10.60;99.90;;;;;;1888537;76;20344;-75
2022/11/04 00:13:47;;;;;;;;;;;10.80;99.90;;;;;;1888091;76;20182;-74
2022/11/04 00:18:59;;;;;;;;;;;10.90;99.90;;;;;;1887953;76;20207;-74
2022/11/04 00:28:41;;;;;;;;;;;10.80;99.90;;;;;;1887983;76;20200;-75
2022/11/04 00:29:43;;;;;;;;;;;10.60;99.90;;;;;;1887905;76;20151;-74
2022/11/04 00:34:54;;;;;;;;;;;10.50;99.90;;;;;;1887991;76;20163;-74
2022/11/04 00:37:21;;;;;;;;;;;10.50;99.90;;;;;;1888081;74;20163;-74
2022/11/04 00:39:48;;;;;;;;;;;10.50;99.90;;;;;;1888324;76;20158;-75
2022/11/04 00:42:15;;;;;;;;;;;10.40;99.90;;;;;;1888324;76;20339;-74
2022/11/04 00:44:41;;;;;;;;;;;10.40;99.90;;;;;;1888022;76;20204;-74
2022/11/04 00:47:08;;;;;;;;;;;10.40;99.90;;;;;;1887928;76;20343;-75
2022/11/04 00:49:35;;;;;;;;;;;10.40;99.90;;;;;;1887086;76;20100;-75
2022/11/04 00:52:02;;;;;;;;;;;10.30;99.90;;;;;;1887733;76;20167;-75
2022/11/04 00:54:28;;;;;;;;;;;10.40;99.90;;;;;;1887899;76;20150;-75
2022/11/04 00:56:55;;;;;;;;;;;10.40;99.90;;;;;;1887889;74;20143;-75
2022/11/04 00:59:22;;;;;;;;;;;10.40;99.90;;;;;;1888034;76;20194;-75
2022/11/04 01:01:48;;;;;;;;;;;10.40;99.90;;;;;;1888118;76;20355;-74
2022/11/04 01:04:15;;;;;;;;;;;10.40;99.90;;;;;;1887958;76;20169;-75
2022/11/04 01:06:42;;;;;;;;;;;10.20;99.90;;;;;;1887943;76;20175;-75
2022/11/04 01:09:10;;;;;;;;;;;10.30;99.90;;;;;;1887915;76;20115;-74
2022/11/04 01:11:37;;;;;;;;;;;10.30;99.90;;;;;;1887922;76;20116;-75
2022/11/04 01:14:04;;;;;;;;;;;10.30;99.90;;;;;;1887784;76;20305;-75
2022/11/04 01:16:30;;;;;;;;;;;10.30;99.90;;;;;;1887886;74;20105;-74
2022/11/04 01:18:57;;;;;;;;;;;10.20;99.90;;;;;;1888162;74;20174;-75
2022/11/04 01:21:24;;;;;;;;;;;10.10;99.90;;;;;;1887832;76;20246;-75
2022/11/04 01:23:51;;;;;;;;;;;10.20;99.90;;;;;;1887935;76;20115;-75
2022/11/04 01:26:18;;;;;;;;;;;10.20;99.90;;;;;;1888241;76;20116;-75
2022/11/04 01:28:45;;;;;;;;;;;10.30;99.90;;;;;;1887985;76;20123;-74
2022/11/04 01:31:13;;;;;;;;;;;10.20;99.90;;;;;;1887976;76;20148;-75
2022/11/04 01:33:40;;;;;;;;;;;10.20;99.90;;;;;;1888076;76;20101;-75
2022/11/04 01:36:07;;;;;;;;;;;10.20;99.90;;;;;;1887034;76;20155;-73
2022/11/04 01:38:33;;;;;;;;;;;10.20;99.90;;;;;;1887974;76;20116;-74
2022/11/04 01:41:00;;;;;;;;;;;10.20;99.90;;;;;;1887944;76;20154;-74
2022/11/04 01:43:47;;;;;;;;;;;10.20;99.90;;;;;;1887959;76;20128;-74
2022/11/04 01:46:21;;;;;;;;;;;10.10;99.90;;;;;;1887970;74;20150;-75
2022/11/04 01:48:48;;;;;;;;;;;10.10;99.90;;;;;;1876429;76;20154;-74
2022/11/04 01:51:14;;;;;;;;;;;10.10;99.90;;;;;;1887951;74;20116;-74
2022/11/04 01:53:41;;;;;;;;;;;10.10;99.90;;;;;;1887945;76;20163;-74
2022/11/04 01:56:10;;;;;;;;;;;10.00;99.90;;;;;;1887993;76;20116;-74
2022/11/04 01:58:39;;;;;;;;;;;10.00;99.90;;;;;;1887934;76;20339;-75
2022/11/04 02:01:06;;;;;;;;;;;10.00;99.90;;;;;;1887995;76;20150;-74
2022/11/04 02:03:35;;;;;;;;;;;10.00;99.90;;;;;;1888031;76;20178;-74
2022/11/04 02:06:01;;;;;;;;;;;10.00;99.90;;;;;;1884484;76;20175;-74
2022/11/04 02:08:28;;;;;;;;;;;10.00;99.90;;;;;;1888075;76;20157;-74
2022/11/04 02:10:57;;;;;;;;;;;10.00;99.90;;;;;;1879465;76;20155;-75
2022/11/04 02:13:23;;;;;;;;;;;10.00;99.90;;;;;;1880002;74;20180;-75
2022/11/04 02:16:08;;;;;;;;;;;10.00;99.90;;;;;;1888201;74;20116;-76
2022/11/04 02:18:39;;;;;;;;;;;10.00;99.90;;;;;;1892130;74;20111;-75
2022/11/04 02:21:17;;;;;;;;;;;10.00;99.90;;;;;;1891566;74;20179;-75
2022/11/04 02:23:51;;;;;;;;;;;10.00;99.90;;;;;;1877414;74;20175;-75
2022/11/04 02:26:25;;;;;;;;;;;10.00;99.90;;;;;;1900913;75;20211;-75
2022/11/04 02:29:10;;;;;;;;;;;9.80;99.90;;;;;;1899100;74;20223;-75
2022/11/04 02:31:41;;;;;;;;;;;9.90;99.90;;;;;;1879362;76;20104;-75
2022/11/04 02:34:10;;;;;;;;;;;9.90;99.90;;;;;;1863924;76;20105;-76
2022/11/04 02:36:47;;;;;;;;;;;9.90;99.90;;;;;;1878132;76;20097;-75
2022/11/04 02:39:15;;;;;;;;;;;9.80;99.90;;;;;;1879329;76;20181;-74
2022/11/04 02:41:46;;;;;;;;;;;9.80;99.90;;;;;;1879145;76;20409;-74
2022/11/04 02:44:15;;;;;;;;;;;9.80;99.90;;;;;;1879349;76;20113;-74
2022/11/04 02:46:46;;;;;;;;;;;9.80;99.90;;;;;;1879355;76;20426;-76
2022/11/04 02:49:20;;;;;;;;;;;9.70;99.90;;;;;;1878863;76;20155;-74
2022/11/04 02:52:06;;;;;;;;;;;9.70;99.90;;;;;;1879398;76;20173;-75
2022/11/04 02:54:34;;;;;;;;;;;9.70;99.90;;;;;;1879389;76;20232;-75
2022/11/04 02:57:01;;;;;;;;;;;9.70;99.90;;;;;;1879414;76;20324;-75
2022/11/04 02:59:33;;;;;;;;;;;9.70;99.90;;;;;;1879477;75;20113;-75
2022/11/04 03:02:00;;;;;;;;;;;9.60;99.90;;;;;;1879403;75;20125;-76
2022/11/04 03:04:31;;;;;;;;;;;9.70;99.90;;;;;;1879448;76;20350;-75
2022/11/04 03:06:58;;;;;;;;;;;9.70;99.90;;;;;;1879229;76;20108;-75
2022/11/04 03:09:25;;;;;;;;;;;9.60;99.90;;;;;;1879363;76;20128;-75
2022/11/04 03:11:53;;;;;;;;;;;9.60;99.90;;;;;;1879395;75;20152;-75
2022/11/04 03:14:21;;;;;;;;;;;9.60;99.90;;;;;;1879460;76;20143;-75
2022/11/04 03:16:48;;;;;;;;;;;9.60;99.90;;;;;;1879407;76;20120;-76
2022/11/04 03:19:33;;;;;;;;;;;9.60;99.90;;;;;;1879455;76;20147;-75
2022/11/04 03:22:07;;;;;;;;;;;9.60;99.90;;;;;;1913547;74;20153;-75
2022/11/04 03:24:34;;;;;;;;;;;9.60;99.90;;;;;;1878280;76;20182;-74
2022/11/04 03:27:02;;;;;;;;;;;9.50;99.90;;;;;;1879372;76;20117;-74
2022/11/04 03:29:30;;;;;;;;;;;9.50;99.90;;;;;;1875041;74;20129;-74
2022/11/04 03:32:05;;;;;;;;;;;9.50;99.90;;;;;;1890881;75;20162;-73
2022/11/04 03:34:31;;;;;;;;;;;9.30;99.90;;;;;;1887998;76;20147;-74
2022/11/04 03:36:58;;;;;;;;;;;9.30;99.90;;;;;;1888047;76;20336;-74
2022/11/04 03:39:25;;;;;;;;;;;9.30;99.90;;;;;;1887313;76;20116;-74
2022/11/04 03:41:55;;;;;;;;;;;9.20;99.90;;;;;;1887979;76;20351;-74
2022/11/04 03:44:23;;;;;;;;;;;9.30;99.90;;;;;;1888098;76;20378;-74
2022/11/04 03:46:51;;;;;;;;;;;9.30;99.90;;;;;;1888108;76;20120;-74
2022/11/04 03:49:18;;;;;;;;;;;9.10;99.90;;;;;;1887947;76;20100;-74
2022/11/04 03:51:45;;;;;;;;;;;9.20;99.90;;;;;;1879724;75;20109;-74
2022/11/04 03:54:11;;;;;;;;;;;9.20;99.90;;;;;;1879429;76;20151;-75
2022/11/04 03:56:55;;;;;;;;;;;9.20;99.90;;;;;;1879280;76;20166;-75
2022/11/04 03:59:29;;;;;;;;;;;9.30;99.90;;;;;;1879289;76;20171;-75
2022/11/04 04:02:00;;;;;;;;;;;9.10;99.90;;;;;;1878918;76;20178;-74
2022/11/04 04:04:28;;;;;;;;;;;9.20;99.90;;;;;;1879407;76;20202;-75
2022/11/04 04:06:56;;;;;;;;;;;9.20;99.90;;;;;;1879366;75;20136;-74
2022/11/04 04:09:36;;;;;;;;;;;9.00;99.90;;;;;;1879307;75;20225;-74
2022/11/04 04:12:17;;;;;;;;;;;9.10;99.90;;;;;;1879388;76;20210;-75
2022/11/04 04:14:51;;;;;;;;;;;9.00;99.90;;;;;;1879436;76;20175;-74
2022/11/04 04:17:19;;;;;;;;;;;8.90;99.90;;;;;;1879472;76;20120;-74
2022/11/04 04:19:47;;;;;;;;;;;9.00;99.90;;;;;;1877705;74;20124;-74
2022/11/04 04:22:16;;;;;;;;;;;9.10;99.90;;;;;;1889851;75;20220;-75
2022/11/04 04:27:32;;;;;;;;;;;9.10;99.90;;;;;;1891346;76;20125;-75
2022/11/04 04:30:00;;;;;;;;;;;9.10;99.90;;;;;;1891350;76;20101;-75
2022/11/04 04:32:28;;;;;;;;;;;9.10;99.90;;;;;;1890231;75;20326;-75
2022/11/04 04:37:39;;;;;;;;;;;9.10;99.90;;;;;;1891487;76;20120;-73
2022/11/04 04:45:36;;;;;;;;;;;9.00;99.90;;;;;;1891324;76;20154;-74
2022/11/04 04:48:03;;;;;;;;;;;8.90;99.90;;;;;;1891741;75;20144;-74
2022/11/04 04:50:37;;;;;;;;;;;8.90;99.90;;;;;;1891409;76;20183;-74
2022/11/04 04:53:03;;;;;;;;;;;8.90;99.90;;;;;;1891682;74;20138;-74
2022/11/04 04:55:33;;;;;;;;;;;8.90;99.90;;;;;;1887918;76;20332;-74
2022/11/04 04:57:59;;;;;;;;;;;8.90;99.90;;;;;;1888423;76;20337;-74
2022/11/04 05:00:26;;;;;;;;;;;8.80;99.90;;;;;;1888053;76;20201;-75
2022/11/04 05:02:53;;;;;;;;;;;8.70;99.90;;;;;;1888388;76;20386;-74
2022/11/04 05:05:19;;;;;;;;;;;8.80;99.90;;;;;;1887871;76;20127;-74
2022/11/04 05:07:46;;;;;;;;;;;8.70;99.90;;;;;;1887978;76;20343;-75
2022/11/04 05:10:13;;;;;;;;;;;8.70;99.90;;;;;;1888320;75;20217;-75
2022/11/04 05:15:25;;;;;;;;;;;8.70;99.90;;;;;;1880484;74;20144;-75
2022/11/04 05:17:55;;;;;;;;;;;8.70;99.90;;;;;;1879858;74;20109;-74
2022/11/04 05:20:22;;;;;;;;;;;8.70;99.90;;;;;;1881525;74;20363;-75
2022/11/04 05:22:49;;;;;;;;;;;8.60;99.90;;;;;;1898630;75;20115;-75
2022/11/04 05:25:15;;;;;;;;;;;8.60;99.90;;;;;;1887254;74;20194;-77
2022/11/04 05:27:42;;;;;;;;;;;8.50;99.90;;;;;;1888088;76;20160;-74
2022/11/04 05:30:09;;;;;;;;;;;8.60;99.90;;;;;;1888031;76;20347;-74
2022/11/04 05:32:36;;;;;;;;;;;8.50;99.90;;;;;;1888251;74;20116;-75
2022/11/04 05:35:04;;;;;;;;;;;8.60;99.90;;;;;;1888049;76;20218;-75
2022/11/04 05:37:31;;;;;;;;;;;8.50;99.90;;;;;;1887924;76;20112;-75
2022/11/04 05:39:58;;;;;;;;;;;8.60;99.90;;;;;;1887741;76;20146;-75
2022/11/04 05:42:24;;;;;;;;;;;8.50;99.90;;;;;;1888094;75;20113;-76
2022/11/04 05:44:51;;;;;;;;;;;8.40;99.90;;;;;;1888203;74;20333;-75
2022/11/04 05:47:18;;;;;;;;;;;8.30;99.90;;;;;;1887989;75;20101;-75
2022/11/04 05:49:45;;;;;;;;;;;8.40;99.90;;;;;;1888167;76;20116;-75
2022/11/04 05:52:11;;;;;;;;;;;8.40;99.90;;;;;;1888032;76;20123;-76
2022/11/04 05:54:38;;;;;;;;;;;8.40;99.90;;;;;;1887940;76;20146;-75
2022/11/04 05:57:05;;;;;;;;;;;8.30;99.90;;;;;;1888078;76;20104;-75
2022/11/04 05:59:31;;;;;;;;;;;8.30;99.90;;;;;;1888101;76;20109;-75
2022/11/04 06:01:58;;;;;;;;;;;8.40;99.90;;;;;;1888025;76;20160;-75
2022/11/04 06:04:25;;;;;;;;;;;8.30;99.90;;;;;;1887859;76;20105;-75
2022/11/04 06:06:51;;;;;;;;;;;8.30;99.90;;;;;;1887885;76;20104;-75
2022/11/04 06:09:18;;;;;;;;;;;8.30;99.90;;;;;;1887851;76;20111;-75
2022/11/04 06:11:45;;;;;;;;;;;8.30;99.90;;;;;;1888173;76;20105;-76
2022/11/04 06:14:12;;;;;;;;;;;8.30;99.90;;;;;;1887877;74;20124;-76
2022/11/04 06:16:38;;;;;;;;;;;8.30;99.90;;;;;;1888300;76;20370;-75
2022/11/04 06:19:05;;;;;;;;;;;8.30;99.90;;;;;;1887805;76;20116;-75
2022/11/04 06:21:32;;;;;;;;;;;8.20;99.90;;;;;;1887917;76;20144;-76
2022/11/04 06:23:59;;;;;;;;;;;8.20;99.90;;;;;;1887919;76;20135;-75
2022/11/04 06:26:26;;;;;;;;;;;8.20;99.90;;;;;;1888408;75;20116;-75
2022/11/04 06:28:53;;;;;;;;;;;8.20;99.90;;;;;;1887980;76;20161;-76
2022/11/04 06:31:20;;;;;;;;;;;8.10;99.90;;;;;;1888006;76;20361;-76
2022/11/04 06:33:46;;;;;;;;;;;8.00;99.90;;;;;;1887800;76;20151;-76
2022/11/04 06:36:14;;;;;;;;;;;8.00;99.90;;;;;;1879504;75;20168;-76
2022/11/04 06:38:40;;;;;;;;;;;8.10;99.90;;;;;;1879403;76;20128;-76
2022/11/04 06:41:08;;;;;;;;;;;8.20;99.90;;;;;;1879375;76;20151;-76
2022/11/04 06:43:34;;;;;;;;;;;8.10;99.90;;;;;;1879319;76;20117;-76
2022/11/04 06:46:02;;;;;;;;;;;8.10;99.90;;;;;;1879279;76;20321;-76
2022/11/04 06:48:31;;;;;;;;;;;8.20;99.90;;;;;;1882551;75;20123;-75
2022/11/04 06:50:58;;;;;;;;;;;8.20;99.90;;;;;;1891084;75;20100;-75
2022/11/04 06:53:25;;;;;;;;;;;8.30;99.90;;;;;;1887617;76;20182;-76
2022/11/04 06:55:52;;;;;;;;;;;8.30;99.90;;;;;;1888033;76;20120;-76
2022/11/04 06:58:19;;;;;;;;;;;8.30;99.90;;;;;;1887891;76;20162;-76
2022/11/04 07:00:52;;;;;;;;;;;8.30;99.90;;;;;;1887977;75;20162;-75
2022/11/04 07:03:19;;;;;;;;;;;8.30;99.90;;;;;;1879969;75;20167;-75
2022/11/04 07:05:45;;;;;;;;;;;8.20;99.90;;;;;;1879366;76;20336;-76
2022/11/04 07:08:12;;;;;;;;;;;8.20;99.90;;;;;;1879274;76;20143;-75
2022/11/04 07:10:39;;;;;;;;;;;8.30;99.90;;;;;;1879383;76;20347;-75
2022/11/04 07:13:05;;;;;;;;;;;8.30;99.90;;;;;;1879334;76;20151;-75
2022/11/04 07:15:32;;;;;;;;;;;8.30;99.90;;;;;;1890528;75;20349;-75
2022/11/04 07:17:59;;;;;;;;;;;8.40;99.90;;;;;;1894060;75;20125;-76
2022/11/04 07:20:26;;;;;;;;;;;8.30;99.90;;;;;;1888328;76;20120;-76
2022/11/04 07:22:54;;;;;;;;;;;8.40;99.90;;;;;;1886666;76;20120;-76
2022/11/04 07:25:21;;;;;;;;;;;8.40;99.90;;;;;;1886797;76;20399;-76
2022/11/04 07:27:47;;;;;;;;;;;8.50;99.90;;;;;;1888047;75;20151;-76
2022/11/04 07:30:14;;;;;;;;;;;8.40;99.90;;;;;;1888020;75;20116;-76
2022/11/04 07:32:41;;;;;;;;;;;8.50;99.90;;;;;;1888109;76;20116;-76
2022/11/04 07:35:08;;;;;;;;;;;8.40;99.90;;;;;;1888117;76;20198;-75
2022/11/04 07:37:34;;;;;;;;;;;8.60;99.90;;;;;;1887972;76;20200;-77
2022/11/04 07:40:01;;;;;;;;;;;8.50;99.90;;;;;;1887919;76;20327;-75
2022/11/04 07:42:28;;;;;;;;;;;8.70;99.90;;;;;;1887708;76;20129;-75
2022/11/04 07:44:55;;;;;;;;;;;8.70;99.90;;;;;;1888120;76;20112;-75
2022/11/04 07:47:21;;;;;;;;;;;8.80;99.90;;;;;;1887945;76;20180;-75
2022/11/04 07:49:48;;;;;;;;;;;8.80;99.90;;;;;;1888057;75;20119;-76
2022/11/04 07:52:15;;;;;;;;;;;8.90;99.90;;;;;;1888866;76;20179;-75
2022/11/04 07:54:41;;;;;;;;;;;9.10;99.90;;;;;;1887958;76;20116;-75
2022/11/04 07:57:08;;;;;;;;;;;9.20;99.90;;;;;;1887962;76;20115;-76
2022/11/04 07:59:35;;;;;;;;;;;9.20;99.90;;;;;;1887525;76;20186;-75
2022/11/04 08:02:01;;;;;;;;;;;9.20;99.90;;;;;;1888105;76;20112;-76
2022/11/04 08:04:28;;;;;;;;;;;9.20;99.90;;;;;;1887991;76;20140;-76
2022/11/04 08:06:55;;;;;;;;;;;9.40;99.90;;;;;;1887964;76;20185;-76
2022/11/04 08:09:22;;;;;;;;;;;9.40;99.90;;;;;;1888238;76;20339;-77
2022/11/04 08:11:48;;;;;;;;;;;9.40;99.90;;;;;;1887967;76;20328;-74
2022/11/04 08:14:15;;;;;;;;;;;9.50;99.90;;;;;;1888711;76;20138;-76
2022/11/04 08:16:42;;;;;;;;;;;9.50;99.90;;;;;;1886897;76;20110;-75
2022/11/04 08:19:09;;;;;;;;;;;9.50;99.90;;;;;;1887968;74;20120;-75
2022/11/04 08:21:35;;;;;;;;;;;9.60;99.90;;;;;;1888608;76;20112;-75
2022/11/04 08:24:02;;;;;;;;;;;9.60;99.90;;;;;;1889022;74;20158;-76
2022/11/04 08:26:29;;;;;;;;;;;9.60;99.90;;;;;;1888570;75;20105;-75
2022/11/04 08:28:56;;;;;;;;;;;9.70;99.90;;;;;;1888984;76;20309;-75
2022/11/04 08:31:24;;;;;;;;;;;9.60;99.90;;;;;;1888516;76;20109;-76
2022/11/04 08:33:51;;;;;;;;;;;9.60;99.90;;;;;;1888403;76;20152;-76
2022/11/04 08:36:19;;;;;;;;;;;9.60;99.90;;;;;;1888256;76;20247;-75
2022/11/04 08:38:46;;;;;;;;;;;9.60;99.90;;;;;;1888239;76;20344;-75
2022/11/04 08:41:13;;;;;;;;;;;9.70;99.90;;;;;;1887925;74;20171;-74
2022/11/04 08:43:39;;;;;;;;;;;10.00;99.90;;;;;;1887863;75;20151;-74
2022/11/04 08:46:07;;;;;;;;;;;10.10;99.90;;;;;;1888086;76;20364;-74
2022/11/04 08:48:34;;;;;;;;;;;10.10;99.90;;;;;;1888049;75;20179;-74
2022/11/04 08:51:00;;;;;;;;;;;10.20;99.90;;;;;;1888046;76;20128;-74
2022/11/04 08:53:27;;;;;;;;;;;10.20;99.90;;;;;;1888020;76;20104;-74
2022/11/04 08:55:54;;;;;;;;;;;10.30;99.90;;;;;;1888696;76;20194;-75
2022/11/04 08:58:20;;;;;;;;;;;10.30;99.90;;;;;;1887569;76;20307;-76
2022/11/04 09:00:48;;;;;;;;;;;10.40;99.90;;;;;;1888019;76;20162;-75
2022/11/04 09:03:15;;;;;;;;;;;10.50;99.90;;;;;;1888027;76;20202;-74
2022/11/04 09:05:46;;;;;;;;;;;10.20;99.90;;;;;;1887906;76;20100;-75
2022/11/04 09:08:13;;;;;;;;;;;10.20;99.90;;;;;;1888019;76;20398;-75
2022/11/04 09:10:41;;;;;;;;;;;10.40;99.90;;;;;;1887926;76;20197;-75
2022/11/04 09:13:10;;;;;;;;;;;10.50;99.90;;;;;;1888585;76;20138;-75
2022/11/04 09:15:37;;;;;;;;;;;10.50;99.90;;;;;;1887435;76;20120;-74
2022/11/04 09:18:04;;;;;;;;;;;10.70;99.90;;;;;;1888388;76;20148;-74
2022/11/04 09:20:31;;;;;;;;;;;10.60;99.90;;;;;;1888032;76;20146;-74
2022/11/04 09:22:58;;;;;;;;;;;10.50;99.90;;;;;;1887741;74;20332;-74
2022/11/04 09:25:24;;;;;;;;;;;10.60;99.90;;;;;;1887971;74;20120;-74
2022/11/04 09:27:51;;;;;;;;;;;10.60;99.90;;;;;;1888031;76;20124;-74
2022/11/04 09:30:18;;;;;;;;;;;10.80;99.90;;;;;;1888033;76;20120;-74
2022/11/04 09:32:44;;;;;;;;;;;10.70;99.90;;;;;;1879316;76;20128;-74
2022/11/04 09:35:11;;;;;;;;;;;10.90;99.90;;;;;;1879513;76;20186;-73
2022/11/04 09:37:38;;;;;;;;;;;10.90;99.90;;;;;;1879468;76;20344;-74
2022/11/04 09:40:06;;;;;;;;;;;10.80;99.90;;;;;;1879477;76;20125;-74
2022/11/04 09:42:43;;;;;;;;;;;10.80;99.90;;;;;;1892713;74;20132;-73
2022/11/04 09:45:17;;;;;;;;;;;10.80;99.90;;;;;;1879087;76;20176;-74
2022/11/04 09:47:43;;;;;;;;;;;10.70;99.90;;;;;;1879389;75;20133;-75
2022/11/04 09:50:12;;;;;;;;;;;10.70;99.90;;;;;;1879379;76;20355;-75
2022/11/04 09:52:39;;;;;;;;;;;10.70;99.90;;;;;;1879171;76;20117;-75
2022/11/04 09:55:07;;;;;;;;;;;11.00;99.90;;;;;;1879455;76;20116;-76
2022/11/04 09:57:34;;;;;;;;;;;11.10;99.90;;;;;;1879335;76;20379;-75
2022/11/04 10:00:01;;;;;;;;;;;11.50;99.90;;;;;;1879485;76;20117;-75
2022/11/04 10:02:47;;;;;;;;;;;11.50;99.90;;;;;;1884333;75;20109;-74
2022/11/04 10:05:24;;;;;;;;;;;11.30;99.90;;;;;;1887651;74;20205;-74
2022/11/04 10:07:56;;;;;;;;;;;11.40;99.90;;;;;;1887535;76;20215;-74
2022/11/04 10:10:39;;;;;;;;;;;11.30;99.90;;;;;;1888465;76;20120;-75
2022/11/04 10:13:20;;;;;;;;;;;11.60;99.90;;;;;;1888113;76;20331;-74
2022/11/04 10:15:54;;;;;;;;;;;11.50;99.90;;;;;;1887904;75;20188;-75
2022/11/04 10:18:25;;;;;;;;;;;11.80;99.90;;;;;;1888054;75;20220;-74
2022/11/04 10:20:59;;;;;;;;;;;11.90;99.90;;;;;;1887751;76;20327;-75
2022/11/04 10:23:34;;;;;;;;;;;12.20;99.90;;;;;;1887873;75;20177;-74
2022/11/04 10:26:08;;;;;;;;;;;12.50;99.90;;;;;;1886916;75;20120;-75
2022/11/04 10:28:39;;;;;;;;;;;12.40;99.90;;;;;;1888198;76;20112;-74
2022/11/04 10:31:06;;;;;;;;;;;12.20;99.90;;;;;;1888070;74;20182;-75
2022/11/04 10:33:34;;;;;;;;;;;12.00;99.90;;;;;;1887881;76;20158;-75
2022/11/04 10:36:02;;;;;;;;;;;12.20;99.90;;;;;;1886902;76;20143;-74
2022/11/04 10:38:48;;;;;;;;;;;12.30;99.90;;;;;;1888150;76;20158;-75
2022/11/04 10:41:16;;;;;;;;;;;12.40;99.90;;;;;;1888777;76;20113;-74
2022/11/04 10:43:43;;;;;;;;;;;12.50;99.90;;;;;;1878994;76;20190;-74
2022/11/04 10:46:28;;;;;;;;;;;12.70;99.90;;;;;;1888243;76;20339;-75
2022/11/04 10:48:56;;;;;;;;;;;13.30;99.90;;;;;;1888391;76;20216;-76
2022/11/04 10:51:23;;;;;;;;;;;13.40;99.90;;;;;;1844406;76;20112;-75
2022/11/04 10:53:51;;;;;;;;;;;13.30;99.90;;;;;;1887912;74;20301;-76
2022/11/04 10:56:20;;;;;;;;;;;13.60;99.90;;;;;;1887933;74;20120;-74
2022/11/04 10:58:46;;;;;;;;;;;13.40;99.90;;;;;;1884831;76;20147;-73
2022/11/04 11:01:27;;;;;;;;;;;13.10;99.90;;;;;;1888041;74;20201;-76
2022/11/04 11:03:53;;;;;;;;;;;13.00;99.90;;;;;;1887974;76;20143;-74
2022/11/04 11:06:27;;;;;;;;;;;12.90;99.90;;;;;;1887966;76;20324;-74
2022/11/04 11:08:55;;;;;;;;;;;13.10;99.90;;;;;;1888032;76;20167;-74
2022/11/04 11:11:35;;;;;;;;;;;12.70;99.90;;;;;;1888264;76;20112;-74
2022/11/04 11:14:02;;;;;;;;;;;13.00;99.90;;;;;;1886973;75;20213;-74
2022/11/04 11:16:30;;;;;;;;;;;13.10;99.90;;;;;;1887816;76;20348;-74
2022/11/04 11:19:12;;;;;;;;;;;13.10;99.90;;;;;;1888773;74;20372;-74
2022/11/04 11:21:48;;;;;;;;;;;13.20;99.90;;;;;;1882835;76;20128;-74
2022/11/04 11:24:17;;;;;;;;;;;13.10;99.90;;;;;;1888290;76;20155;-73
2022/11/04 11:26:50;;;;;;;;;;;13.40;99.90;;;;;;1888482;76;20336;-74
2022/11/04 11:29:19;;;;;;;;;;;13.20;99.90;;;;;;1888487;76;20155;-75
2022/11/04 11:31:46;;;;;;;;;;;12.90;99.90;;;;;;1881593;76;20348;-77
2022/11/04 11:34:26;;;;;;;;;;;12.90;99.90;;;;;;1889116;76;20131;-73
2022/11/04 11:36:54;;;;;;;;;;;13.10;99.90;;;;;;1888372;76;20324;-74
2022/11/04 11:39:22;;;;;;;;;;;12.90;99.90;;;;;;1887282;76;20112;-74
2022/11/04 11:41:53;;;;;;;;;;;12.90;99.90;;;;;;1888382;74;20123;-74
2022/11/04 11:44:37;;;;;;;;;;;13.10;99.90;;;;;;1888254;75;20108;-75
2022/11/04 11:47:00;;;;;;;;;;;13.20;99.90;;;;;;1887262;76;20165;-74
2022/11/04 11:49:29;;;;;;;;;;;13.50;99.90;;;;;;1887870;76;20120;-75
2022/11/04 11:51:56;;;;;;;;;;;13.40;99.90;;;;;;1888338;76;20116;-74
2022/11/04 11:54:32;;;;;;;;;;;13.30;99.90;;;;;;1888266;76;20116;-74
2022/11/04 11:56:58;;;;;;;;;;;13.20;99.90;;;;;;1888379;74;20138;-74
2022/11/04 11:59:27;;;;;;;;;;;13.20;99.90;;;;;;1888395;76;20112;-74
2022/11/04 12:01:55;;;;;;;;;;;13.20;99.90;;;;;;1887861;76;20243;-74
2022/11/04 12:04:22;;;;;;;;;;;13.30;99.90;;;;;;1885843;76;20154;-74
2022/11/04 12:06:53;;;;;;;;;;;13.40;99.90;;;;;;1883857;75;20132;-75
2022/11/04 12:09:27;;;;;;;;;;;13.40;99.90;;;;;;1879448;76;20144;-74
2022/11/04 12:11:56;;;;;;;;;;;13.40;99.90;;;;;;1879474;76;20386;-75
2022/11/04 12:14:36;;;;;;;;;;;13.60;99.90;;;;;;1887015;75;20162;-75
2022/11/04 12:17:21;;;;;;;;;;;13.30;99.90;;;;;;1887611;75;20109;-74
2022/11/04 12:19:52;;;;;;;;;;;13.70;99.90;;;;;;1887965;76;20105;-75
2022/11/04 12:22:39;;;;;;;;;;;13.90;99.90;;;;;;1870275;76;20116;-75
2022/11/04 12:25:20;;;;;;;;;;;14.00;99.90;;;;;;1887849;76;20177;-76
2022/11/04 12:27:51;;;;;;;;;;;13.90;99.90;;;;;;1841840;76;20154;-73
2022/11/04 12:30:18;;;;;;;;;;;13.90;99.90;;;;;;1887805;76;20200;-75
2022/11/04 12:32:49;;;;;;;;;;;14.20;99.90;;;;;;1888086;76;20109;-75
2022/11/04 12:35:21;;;;;;;;;;;14.30;99.90;;;;;;1888146;75;20116;-72
2022/11/04 12:38:06;;;;;;;;;;;14.40;99.90;;;;;;1888547;76;20374;-72
2022/11/04 12:40:45;;;;;;;;;;;14.50;99.90;;;;;;1888233;76;20109;-75
2022/11/04 12:43:13;;;;;;;;;;;14.50;99.90;;;;;;1888055;74;20112;-73
2022/11/04 12:45:43;;;;;;;;;;;14.20;99.90;;;;;;1889901;75;20162;-73
2022/11/04 12:48:11;;;;;;;;;;;14.30;99.90;;;;;;1841678;74;20335;-74
2022/11/04 12:50:42;;;;;;;;;;;14.00;99.90;;;;;;1879712;76;20107;-74
2022/11/04 12:53:11;;;;;;;;;;;13.70;99.90;;;;;;1893497;75;20400;-74
2022/11/04 12:55:39;;;;;;;;;;;13.40;99.90;;;;;;1879010;76;20193;-76
2022/11/04 12:58:07;;;;;;;;;;;13.50;99.90;;;;;;1876214;76;20356;-75
2022/11/04 13:00:34;;;;;;;;;;;13.70;99.90;;;;;;1879444;76;20217;-73
2022/11/04 13:03:03;;;;;;;;;;;13.30;99.90;;;;;;1879664;76;20097;-73
2022/11/04 13:05:34;;;;;;;;;;;13.40;99.90;;;;;;1881470;74;20370;-74
2022/11/04 13:08:14;;;;;;;;;;;13.60;99.90;;;;;;1890631;76;20116;-75
2022/11/04 13:10:49;;;;;;;;;;;13.50;99.90;;;;;;1888120;76;20146;-75
2022/11/04 13:13:16;;;;;;;;;;;13.60;99.90;;;;;;1888069;76;20121;-75
2022/11/04 13:15:54;;;;;;;;;;;13.80;99.90;;;;;;1886144;75;20410;-73
2022/11/04 13:18:20;;;;;;;;;;;13.90;99.90;;;;;;1882684;74;20122;-73
2022/11/04 13:20:49;;;;;;;;;;;13.70;99.90;;;;;;1883479;74;20129;-74
2022/11/04 13:23:23;;;;;;;;;;;13.90;99.90;;;;;;1888470;75;20127;-74
2022/11/04 13:25:50;;;;;;;;;;;14.10;99.90;;;;;;1888050;76;20128;-75
2022/11/04 13:28:18;;;;;;;;;;;14.00;99.90;;;;;;1888083;76;20112;-74
2022/11/04 13:30:52;;;;;;;;;;;13.90;99.90;;;;;;1888267;74;20155;-75
2022/11/04 13:33:38;;;;;;;;;;;13.90;99.90;;;;;;1892886;75;20320;-74
2022/11/04 13:36:18;;;;;;;;;;;14.10;99.90;;;;;;1891761;76;20105;-74
2022/11/04 13:38:45;;;;;;;;;;;14.70;99.90;;;;;;1892055;76;20194;-73
2022/11/04 13:41:14;;;;;;;;;;;15.00;99.90;;;;;;1888141;74;20151;-73
2022/11/04 13:43:41;;;;;;;;;;;15.50;99.90;;;;;;1887565;75;20124;-73
2022/11/04 13:46:10;;;;;;;;;;;16.10;99.90;;;;;;1888251;74;20170;-73
2022/11/04 13:48:38;;;;;;;;;;;16.40;99.90;;;;;;1888372;76;20217;-73
2022/11/04 13:51:06;;;;;;;;;;;16.60;99.90;;;;;;1888339;74;20217;-73
2022/11/04 13:53:42;;;;;;;;;;;16.50;99.90;;;;;;1888298;76;20116;-74
2022/11/04 13:56:10;;;;;;;;;;;15.60;99.90;;;;;;1887795;76;20116;-75
2022/11/04 13:58:38;;;;;;;;;;;15.00;99.90;;;;;;1888285;76;20116;-74
2022/11/04 14:01:18;;;;;;;;;;;14.60;99.90;;;;;;1888353;76;20275;-75
2022/11/04 14:03:52;;;;;;;;;;;15.00;99.90;;;;;;1839932;76;20390;-74
2022/11/04 14:06:20;;;;;;;;;;;14.80;99.90;;;;;;1879705;76;20174;-75
2022/11/04 14:09:05;;;;;;;;;;;14.40;99.90;;;;;;1876069;76;20117;-73
2022/11/04 14:11:32;;;;;;;;;;;14.60;99.90;;;;;;1881416;75;20117;-75
2022/11/04 14:14:02;;;;;;;;;;;14.40;99.90;;;;;;1855401;76;20351;-74
2022/11/04 14:16:31;;;;;;;;;;;14.00;99.90;;;;;;1878605;74;20108;-75
2022/11/04 14:18:57;;;;;;;;;;;13.70;99.90;;;;;;1891398;76;20116;-75
2022/11/04 14:21:25;;;;;;;;;;;13.60;99.90;;;;;;1891374;76;20120;-74
2022/11/04 14:23:53;;;;;;;;;;;13.50;99.90;;;;;;1889438;74;20150;-75
2022/11/04 14:26:20;;;;;;;;;;;13.50;99.90;;;;;;1887545;75;20166;-75
2022/11/04 14:28:49;;;;;;;;;;;13.40;99.90;;;;;;1887969;76;20116;-74
2022/11/04 14:31:17;;;;;;;;;;;13.30;99.90;;;;;;1887865;76;20229;-75
2022/11/04 14:33:54;;;;;;;;;;;13.40;99.90;;;;;;1878997;76;20206;-75
2022/11/04 14:36:22;;;;;;;;;;;13.30;99.90;;;;;;1888205;76;20189;-75
2022/11/04 14:38:53;;;;;;;;;;;13.30;99.90;;;;;;1887895;76;20191;-74
2022/11/04 14:41:30;;;;;;;;;;;13.00;99.90;;;;;;1879255;76;20116;-74
2022/11/04 14:43:58;;;;;;;;;;;12.80;99.90;;;;;;1879411;76;20166;-74
2022/11/04 14:46:26;;;;;;;;;;;12.60;99.90;;;;;;1889325;75;20179;-75
2022/11/04 14:48:54;;;;;;;;;;;12.50;99.90;;;;;;1879494;76;20113;-75
2022/11/04 14:51:23;;;;;;;;;;;12.30;99.90;;;;;;1896603;75;20113;-75
2022/11/04 14:53:50;;;;;;;;;;;12.00;99.90;;;;;;1878662;76;20124;-74
2022/11/04 14:56:18;;;;;;;;;;;11.90;99.90;;;;;;1879414;76;20147;-74
2022/11/04 14:58:53;;;;;;;;;;;11.80;99.90;;;;;;1883634;74;20293;-75
2022/11/04 15:01:19;;;;;;;;;;;11.70;99.90;;;;;;1888684;74;20151;-76
2022/11/04 15:03:46;;;;;;;;;;;11.60;99.90;;;;;;1888172;76;20163;-76